ADDS METAR Data INFO
IDs: Format: Raw Decoded Include TAF

Data at: 1934 UTC 19 Jul 2018

KDVO 191915Z AUTO VRB05KT 10SM CLR 25/14 A2993 RMK AO2
KDVO 191855Z AUTO VRB04KT 10SM CLR 24/14 A2994 RMK AO2
KDVO 191835Z AUTO 00000KT 10SM CLR 23/13 A2995 RMK AO2
KDVO 191815Z AUTO 00000KT 10SM CLR 22/13 A2995 RMK AO2
KDVO 191755Z AUTO 00000KT 10SM CLR 20/13 A2995 RMK AO2
KDVO 191735Z AUTO VRB04KT 10SM CLR 19/13 A2996 RMK AO2
KDVO 191715Z AUTO 35004KT 10SM CLR 19/13 A2996 RMK AO2
KDVO 191655Z AUTO VRB03KT 10SM CLR 18/12 A2996 RMK AO2
KDVO 191635Z AUTO 00000KT 10SM FEW013 18/12 A2997 RMK AO2
KDVO 191615Z AUTO 00000KT 10SM SCT013 17/12 A2997 RMK AO2
KDVO 191555Z AUTO VRB03KT 10SM SCT012 17/12 A2997 RMK AO2
KDVO 191535Z AUTO VRB03KT 10SM OVC011 15/12 A2997 RMK AO2
KDVO 191515Z AUTO 00000KT 10SM OVC009 14/12 A2997 RMK AO2
KDVO 191455Z AUTO 00000KT 10SM OVC009 14/12 A2996 RMK AO2
KDVO 191435Z AUTO 00000KT 10SM OVC007 14/12 A2996 RMK AO2
KDVO 191415Z AUTO 00000KT 10SM OVC006 13/12 A2995 RMK AO2
KDVO 191355Z AUTO 33003KT 10SM OVC005 13/12 A2995 RMK AO2
KDVO 191335Z AUTO 30004KT 10SM OVC006 14/12 A2995 RMK AO2
KDVO 191315Z AUTO 32007KT 10SM OVC005 13/12 A2994 RMK AO2
KDVO 191255Z AUTO 31006KT 10SM OVC005 13/12 A2994 RMK AO2
KDVO 191235Z AUTO 33006KT 9SM OVC005 13/12 A2994 RMK AO2
KDVO 191215Z AUTO 30004KT 9SM OVC005 14/12 A2993 RMK AO2
KDVO 191155Z AUTO 00000KT 10SM OVC005 14/12 A2993 RMK AO2
KDVO 191135Z AUTO 00000KT 10SM OVC005 14/12 A2993 RMK AO2
KDVO 191115Z AUTO 00000KT 10SM OVC006 14/12 A2993 RMK AO2
KDVO 191055Z AUTO 00000KT 10SM OVC007 13/12 A2992 RMK AO2
KDVO 191035Z AUTO 00000KT 10SM OVC008 13/11 A2992 RMK AO2
KDVO 191015Z AUTO 00000KT 10SM BKN008 12/11 A2992 RMK AO2
KDVO 190955Z AUTO 33004KT 10SM CLR 12/11 A2992 RMK AO2
KDVO 190935Z AUTO 00000KT 10SM FEW006 13/12 A2993 RMK AO2
KDVO 190915Z AUTO 33006KT 10SM SCT006 13/12 A2993 RMK AO2
KDVO 190855Z AUTO 33006KT 10SM SCT006 13/12 A2992 RMK AO2
KDVO 190835Z AUTO 34007KT 10SM BKN006 13/12 A2993 RMK AO2
KDVO 190815Z AUTO 34008KT 10SM FEW006 13/12 A2993 RMK AO2
KDVO 190755Z AUTO 34007KT 10SM FEW007 13/12 A2993 RMK AO2
KDVO 190735Z AUTO 34007KT 10SM CLR 13/12 A2994 RMK AO2
KDVO 190715Z AUTO 34007KT 10SM CLR 13/12 A2994 RMK AO2
KDVO 190655Z AUTO 34007KT 10SM CLR 14/12 A2994 RMK AO2
KDVO 190635Z AUTO 34009KT 10SM CLR 14/12 A2994 RMK AO2
KDVO 190615Z AUTO 35009KT 10SM CLR 14/12 A2994 RMK AO2
KDVO 190555Z AUTO 35008KT 10SM CLR 14/12 A2994 RMK AO2
KDVO 190535Z AUTO 35008KT 10SM CLR 15/12 A2993 RMK AO2
KDVO 190515Z AUTO 34010KT 10SM CLR 15/12 A2993 RMK AO2
KDVO 190455Z AUTO 34011KT 10SM CLR 15/12 A2992 RMK AO2
KDVO 190435Z AUTO 35010KT 10SM CLR 16/12 A2992 RMK AO2
KDVO 190415Z AUTO 35012KT 10SM CLR 16/13 A2991 RMK AO2
KDVO 190355Z AUTO 35011KT 10SM CLR 17/13 A2990 RMK AO2
KDVO 190335Z AUTO 35012KT 10SM CLR 18/13 A2989 RMK AO2
KDVO 190315Z AUTO 36013KT 10SM CLR 19/13 A2989 RMK AO2
KDVO 190255Z AUTO 36011KT 10SM CLR 21/14 A2989 RMK AO2
KDVO 190235Z AUTO 36010KT 10SM CLR 22/14 A2989 RMK AO2
KDVO 190215Z AUTO 36010KT 10SM CLR 23/14 A2989 RMK AO2
KDVO 190155Z AUTO 35010G15KT 10SM CLR 25/14 A2989 RMK AO2
KDVO 190135Z AUTO 36011KT 10SM CLR 27/14 A2989 RMK AO2
KDVO 190115Z AUTO 35011KT 10SM CLR 27/15 A2989 RMK AO2
KDVO 190055Z AUTO 34014KT 10SM CLR 28/14 A2989 RMK AO2
KDVO 190035Z AUTO 34015KT 10SM CLR 30/15 A2989 RMK AO2
KDVO 190015Z AUTO 34014KT 10SM CLR 30/15 A2989 RMK AO2
KDVO 182355Z AUTO 35014KT 10SM CLR 30/15 A2989 RMK AO2
KDVO 182335Z AUTO 36014KT 10SM CLR 30/16 A2990 RMK AO2
KDVO 182315Z AUTO 01014KT 10SM CLR 29/16 A2990 RMK AO2
KDVO 182255Z AUTO 03011G16KT 10SM CLR 31/16 A2991 RMK AO2
KDVO 182235Z AUTO 01008KT 10SM CLR 31/16 A2991 RMK AO2
KDVO 182215Z AUTO VRB06KT 9SM CLR 30/16 A2992 RMK AO2
KDVO 182155Z AUTO VRB05G10KT 10SM CLR 29/16 A2993 RMK AO2
KDVO 182135Z AUTO VRB04G10KT 10SM CLR 29/16 A2993 RMK AO2
KDVO 182115Z AUTO 10006KT 10SM CLR 28/16 A2994 RMK AO2
KDVO 182055Z AUTO 12007KT 090V160 8SM CLR 28/16 A2994 RMK AO2
KDVO 182035Z AUTO 13007KT 9SM CLR 28/16 A2994 RMK AO2
KDVO 182015Z AUTO VRB05G10KT 10SM CLR 28/16 A2995 RMK AO2
KDVO 181955Z AUTO VRB05KT 10SM CLR 27/15 A2996 RMK AO2
KDVO 181935Z AUTO VRB03G10KT 10SM CLR 26/15 A2996 RMK AO2
KDVO 181915Z AUTO 00000KT 10SM CLR 25/15 A2997 RMK AO2
KDVO 181855Z AUTO 14006KT 10SM CLR 23/15 A2998 RMK AO2
KDVO 181835Z AUTO 00000KT 10SM CLR 22/15 A2999 RMK AO2
KDVO 181815Z AUTO VRB04KT 10SM CLR 22/15 A2999 RMK AO2
KDVO 181755Z AUTO VRB04KT 10SM CLR 21/14 A2999 RMK AO2
KDVO 181735Z AUTO VRB03KT 10SM CLR 20/14 A2999 RMK AO2
KDVO 181715Z AUTO 00000KT 10SM CLR 19/13 A2999 RMK AO2
KDVO 181655Z AUTO 00000KT 10SM CLR 19/13 A3000 RMK AO2
KDVO 181635Z AUTO 00000KT 10SM FEW011 17/13 A3000 RMK AO2
KDVO 181615Z AUTO 00000KT 10SM BKN009 16/13 A3000 RMK AO2
KDVO 181555Z AUTO 00000KT 10SM OVC009 15/12 A3000 RMK AO2
KDVO 181535Z AUTO 00000KT 10SM BKN007 15/12 A3000 RMK AO2
KDVO 181515Z AUTO 00000KT 10SM OVC006 14/12 A2999 RMK AO2
KDVO 181455Z AUTO 00000KT 10SM OVC005 14/12 A2999 RMK AO2
KDVO 181435Z AUTO 00000KT 10SM OVC005 14/12 A2999 RMK AO2
KDVO 181415Z AUTO 00000KT 10SM OVC005 14/12 A2998 RMK AO2
KDVO 181355Z AUTO 00000KT 10SM OVC005 14/12 A2998 RMK AO2
KDVO 181335Z AUTO 00000KT 10SM OVC005 13/12 A2998 RMK AO2
KDVO 181315Z AUTO 00000KT 10SM OVC005 13/12 A2997 RMK AO2
KDVO 181255Z AUTO 00000KT 10SM OVC005 13/12 A2997 RMK AO2
KDVO 181235Z AUTO 00000KT 10SM OVC005 13/12 A2997 RMK AO2
KDVO 181215Z AUTO 00000KT 10SM OVC004 13/12 A2997 RMK AO2
KDVO 181155Z AUTO 34004KT 10SM OVC004 13/12 A2997 RMK AO2
KDVO 181135Z AUTO 33005KT 10SM OVC004 13/12 A2997 RMK AO2
KDVO 181115Z AUTO 33004KT 10SM OVC004 13/12 A2997 RMK AO2
KDVO 181055Z AUTO 33005KT 10SM OVC005 13/12 A2997 RMK AO2
KDVO 181035Z AUTO 33005KT 10SM OVC006 13/12 A2997 RMK AO2
KDVO 181015Z AUTO 34004KT 10SM OVC006 13/12 A2997 RMK AO2
KDVO 180955Z AUTO 00000KT 10SM OVC008 13/11 A2997 RMK AO2
KDVO 180935Z AUTO 32004KT 10SM OVC009 13/11 A2998 RMK AO2
KDVO 180915Z AUTO 32003KT 10SM OVC009 13/12 A2998 RMK AO2
KDVO 180855Z AUTO 33005KT 10SM OVC010 13/11 A2998 RMK AO2
KDVO 180835Z AUTO 33005KT 10SM BKN009 13/11 A2997 RMK AO2
KDVO 180815Z AUTO 34006KT 10SM CLR 12/11 A2997 RMK AO2
KDVO 180755Z AUTO 33005KT 10SM CLR 12/11 A2997 RMK AO2
KDVO 180735Z AUTO 34006KT 10SM CLR 13/11 A2997 RMK AO2